createdAt,value
2022-11-25T00:00:51.122Z,1.34
2022-11-25T00:01:51.124Z,1.37
2022-11-25T00:02:51.277Z,1.37
2022-11-25T00:03:51.608Z,1.32
2022-11-25T00:04:51.070Z,1.29
2022-11-25T00:05:51.062Z,1.26
2022-11-25T00:06:51.062Z,1.26
2022-11-25T00:07:51.080Z,1.24
2022-11-25T00:08:50.993Z,1.22
2022-11-25T00:09:50.971Z,1.16
2022-11-25T00:10:51.035Z,1.15
2022-11-25T00:11:51.824Z,1.12
2022-11-25T00:12:50.951Z,1.10
2022-11-25T00:13:51.985Z,1.08
2022-11-25T00:14:51.305Z,1.07
2022-11-25T00:15:50.963Z,1.07
2022-11-25T00:16:50.915Z,1.08
2022-11-25T00:17:50.875Z,1.10
2022-11-25T00:18:50.864Z,1.08
2022-11-25T00:19:50.873Z,1.08
2022-11-25T00:20:50.845Z,1.08
2022-11-25T00:21:50.884Z,1.10
2022-11-25T00:22:50.802Z,1.14
2022-11-25T00:23:51.803Z,1.14
2022-11-25T00:24:51.374Z,1.19
2022-11-25T00:25:50.954Z,1.24
2022-11-25T00:26:51.776Z,1.22
2022-11-25T00:27:51.663Z,1.25
2022-11-25T00:28:50.761Z,1.26
2022-11-25T00:29:50.724Z,1.34
2022-11-25T00:30:50.705Z,1.33
2022-11-25T00:31:50.757Z,1.29
2022-11-25T00:32:50.672Z,1.28
2022-11-25T00:33:50.654Z,1.26
2022-11-25T00:34:51.122Z,1.24
2022-11-25T00:35:50.654Z,1.21
2022-11-25T00:36:51.828Z,1.19
2022-11-25T00:37:50.707Z,1.21
2022-11-25T00:38:51.631Z,1.19
2022-11-25T00:39:50.707Z,1.18
2022-11-25T00:40:50.607Z,1.15
2022-11-25T00:41:50.635Z,1.08
2022-11-25T00:42:50.626Z,1.06
2022-11-25T00:43:50.554Z,0.98
2022-11-25T00:44:50.513Z,0.94
2022-11-25T00:45:50.726Z,0.88
2022-11-25T00:46:50.514Z,0.86
2022-11-25T00:47:50.517Z,0.82
2022-11-25T00:48:50.545Z,0.76
2022-11-25T00:49:50.510Z,0.75
2022-11-25T00:50:50.444Z,0.72
2022-11-25T00:51:50.458Z,0.72
2022-11-25T00:52:50.467Z,0.72
2022-11-25T00:53:53.482Z,0.70
2022-11-25T00:54:51.381Z,0.70
2022-11-25T00:55:50.550Z,0.71
2022-11-25T00:56:50.454Z,0.75
2022-11-25T00:57:50.387Z,0.76
2022-11-25T00:58:50.362Z,0.79
2022-11-25T00:59:50.322Z,0.82
2022-11-25T01:00:50.364Z,0.85
2022-11-25T01:01:50.493Z,0.89
2022-11-25T01:02:50.398Z,0.89
2022-11-25T01:03:50.368Z,0.89
2022-11-25T01:04:50.259Z,0.90
2022-11-25T01:05:50.250Z,0.94
2022-11-25T01:06:50.267Z,0.94
2022-11-25T01:07:50.358Z,0.97
2022-11-25T01:08:50.217Z,0.96
2022-11-25T01:09:50.196Z,0.90
2022-11-25T01:10:50.247Z,0.90
2022-11-25T01:11:50.180Z,0.89
2022-11-25T01:12:50.218Z,0.92
2022-11-25T01:13:50.379Z,0.96
2022-11-25T01:14:50.245Z,0.92
2022-11-25T01:15:50.380Z,0.92
2022-11-25T01:16:50.159Z,0.97
2022-11-25T01:17:50.951Z,1.03
2022-11-25T01:18:50.130Z,1.06
2022-11-25T01:19:50.100Z,1.06
2022-11-25T01:20:50.047Z,1.03
2022-11-25T01:21:50.079Z,1.08
2022-11-25T01:22:50.047Z,1.10
2022-11-25T01:23:50.047Z,1.12
2022-11-25T01:24:50.008Z,1.10
2022-11-25T01:25:50.049Z,1.08
2022-11-25T01:26:50.000Z,1.07
2022-11-25T01:27:49.989Z,1.04
2022-11-25T01:28:49.987Z,1.00
2022-11-25T01:29:49.945Z,0.97
2022-11-25T01:30:49.959Z,0.96
2022-11-25T01:31:51.200Z,1.03
2022-11-25T01:32:49.950Z,1.04
2022-11-25T01:33:49.943Z,1.03
2022-11-25T01:34:49.889Z,1.06
2022-11-25T01:35:49.880Z,1.06
2022-11-25T01:36:49.938Z,1.08
2022-11-25T01:37:49.942Z,1.14
2022-11-25T01:38:49.823Z,1.19
2022-11-25T01:39:50.029Z,1.26
2022-11-25T01:40:49.848Z,1.29
2022-11-25T01:41:49.809Z,1.33
2022-11-25T01:42:49.787Z,1.32
2022-11-25T01:43:49.782Z,1.28
2022-11-25T01:44:49.753Z,1.24
2022-11-25T01:45:49.770Z,1.18
2022-11-25T01:46:49.789Z,1.18
2022-11-25T01:47:49.731Z,1.18
2022-11-25T01:48:49.714Z,1.24
2022-11-25T01:49:49.712Z,1.28
2022-11-25T01:50:49.685Z,1.33
2022-11-25T01:51:49.755Z,1.33
2022-11-25T01:52:50.210Z,1.34
2022-11-25T01:53:49.755Z,1.36
2022-11-25T01:54:49.638Z,1.36
2022-11-25T01:55:49.640Z,1.34
2022-11-25T01:56:49.624Z,1.36
2022-11-25T01:57:49.644Z,1.34
2022-11-25T01:58:50.019Z,1.37
2022-11-25T01:59:49.601Z,1.37
2022-11-25T02:00:49.619Z,1.43
2022-11-25T02:01:49.577Z,1.43
2022-11-25T02:02:49.728Z,1.47
2022-11-25T02:03:49.524Z,1.50
2022-11-25T02:04:49.512Z,1.65
2022-11-25T02:05:49.560Z,1.76
2022-11-25T02:06:49.457Z,1.90
2022-11-25T02:07:49.664Z,1.91
2022-11-25T02:08:49.492Z,1.89
2022-11-25T02:09:50.601Z,1.89
2022-11-25T02:10:49.440Z,1.94
2022-11-25T02:11:49.461Z,2.04
2022-11-25T02:12:49.461Z,2.06
2022-11-25T02:13:49.410Z,2.04
2022-11-25T02:14:49.425Z,2.02
2022-11-25T02:15:49.602Z,1.99
2022-11-25T02:16:49.445Z,1.97
2022-11-25T02:17:49.365Z,1.89
2022-11-25T02:18:50.253Z,1.80
2022-11-25T02:19:49.310Z,1.73
2022-11-25T02:20:49.297Z,1.64
2022-11-25T02:21:49.335Z,1.60
2022-11-25T02:22:49.273Z,1.57
2022-11-25T02:23:49.303Z,1.54
2022-11-25T02:24:49.315Z,1.47
2022-11-25T02:25:49.252Z,1.42
2022-11-25T02:26:49.257Z,1.37
2022-11-25T02:27:49.218Z,1.33
2022-11-25T02:28:49.224Z,1.29
2022-11-25T02:29:49.269Z,1.32
2022-11-25T02:30:50.096Z,1.34
2022-11-25T02:31:49.365Z,1.37
2022-11-25T02:32:49.308Z,1.37
2022-11-25T02:33:49.146Z,1.37
2022-11-25T02:34:49.246Z,1.42
2022-11-25T02:35:49.125Z,1.57
2022-11-25T02:36:49.116Z,1.71
2022-11-25T02:37:49.474Z,1.76
2022-11-25T02:38:49.085Z,1.76
2022-11-25T02:39:49.058Z,1.73
2022-11-25T02:40:49.113Z,1.65
2022-11-25T02:41:49.020Z,1.60
2022-11-25T02:42:49.080Z,1.52
2022-11-25T02:43:49.876Z,1.44
2022-11-25T02:44:49.165Z,1.40
2022-11-25T02:45:49.144Z,1.37
2022-11-25T02:46:49.071Z,1.33
2022-11-25T02:47:48.990Z,1.32
2022-11-25T02:49:49.949Z,1.25
2022-11-25T02:50:48.916Z,1.25
2022-11-25T02:51:48.905Z,1.21
2022-11-25T02:52:48.887Z,1.15
2022-11-25T02:53:48.921Z,1.12
2022-11-25T02:54:48.898Z,1.08
2022-11-25T02:55:48.889Z,1.06
2022-11-25T02:56:49.104Z,1.00
2022-11-25T02:57:48.842Z,0.98
2022-11-25T02:58:48.884Z,0.97
2022-11-25T02:59:48.809Z,0.96
2022-11-25T03:00:49.822Z,0.92
2022-11-25T03:01:48.858Z,0.86
2022-11-25T03:02:48.832Z,0.80
2022-11-25T03:03:48.781Z,0.80
2022-11-25T03:04:48.748Z,0.79
2022-11-25T03:05:48.801Z,0.79
2022-11-25T03:06:48.880Z,0.80
2022-11-25T03:07:48.811Z,0.79
2022-11-25T03:08:48.883Z,0.79
2022-11-25T03:09:49.636Z,0.76
2022-11-25T03:10:48.755Z,0.72
2022-11-25T03:11:48.749Z,0.71
2022-11-25T03:12:49.536Z,0.71
2022-11-25T03:13:48.758Z,0.68
2022-11-25T03:14:48.634Z,0.68
2022-11-25T03:15:48.618Z,0.65
2022-11-25T03:16:48.670Z,0.62
2022-11-25T03:17:48.601Z,0.61
2022-11-25T03:18:48.546Z,0.62
2022-11-25T03:19:48.598Z,0.64
2022-11-25T03:20:48.609Z,0.65
2022-11-25T03:21:49.039Z,0.67
2022-11-25T03:22:49.714Z,0.67
2022-11-25T03:23:48.540Z,0.62
2022-11-25T03:24:48.524Z,0.62
2022-11-25T03:25:48.464Z,0.58
2022-11-25T03:26:48.498Z,0.53
2022-11-25T03:27:48.441Z,0.49
2022-11-25T03:28:48.421Z,0.48
2022-11-25T03:29:48.422Z,0.48
2022-11-25T03:30:48.450Z,0.52
2022-11-25T03:31:48.588Z,0.58
2022-11-25T03:32:48.443Z,0.58
2022-11-25T03:33:48.380Z,0.57
2022-11-25T03:34:48.411Z,0.61
2022-11-25T03:35:48.561Z,0.61
2022-11-25T03:36:48.397Z,0.58
2022-11-25T03:37:48.376Z,0.60
2022-11-25T03:38:48.299Z,0.60
2022-11-25T03:39:48.352Z,0.60
2022-11-25T03:40:48.306Z,0.61
2022-11-25T03:41:48.274Z,0.64
2022-11-25T03:42:48.333Z,0.71
2022-11-25T03:43:48.282Z,0.76
2022-11-25T03:44:48.220Z,0.82
2022-11-25T03:45:48.237Z,0.83
2022-11-25T03:46:48.249Z,0.85
2022-11-25T03:47:49.357Z,0.86
2022-11-25T03:48:48.342Z,0.89
2022-11-25T03:49:48.181Z,0.90
2022-11-25T03:50:48.240Z,0.92
2022-11-25T03:51:49.015Z,0.94
2022-11-25T03:52:48.157Z,0.92
2022-11-25T03:53:48.253Z,0.92
2022-11-25T03:54:48.143Z,0.90
2022-11-25T03:55:48.093Z,0.86
2022-11-25T03:56:48.095Z,0.86
2022-11-25T03:57:48.059Z,0.86
2022-11-25T03:58:48.060Z,0.85
2022-11-25T03:59:48.035Z,0.82
2022-11-25T04:00:48.082Z,0.82
2022-11-25T04:01:48.227Z,0.80
2022-11-25T04:02:48.064Z,0.82
2022-11-25T04:03:48.055Z,0.79
2022-11-25T04:04:48.016Z,0.76
2022-11-25T04:05:48.068Z,0.75
2022-11-25T04:06:48.099Z,0.72
2022-11-25T04:07:47.973Z,0.70
2022-11-25T04:08:48.010Z,0.72
2022-11-25T04:09:47.909Z,0.76
2022-11-25T04:10:47.924Z,0.75
2022-11-25T04:11:47.912Z,0.76
2022-11-25T04:12:47.884Z,0.75
2022-11-25T04:13:47.964Z,0.75
2022-11-25T04:14:48.065Z,0.75
2022-11-25T04:15:47.846Z,0.71
2022-11-25T04:16:47.856Z,0.68
2022-11-25T04:17:47.824Z,0.65
2022-11-25T04:18:48.685Z,0.65
2022-11-25T04:19:47.793Z,0.65
2022-11-25T04:20:47.793Z,0.62
2022-11-25T04:21:52.132Z,0.64
2022-11-25T04:22:47.754Z,0.62
2022-11-25T04:23:47.787Z,0.64
2022-11-25T04:24:47.735Z,0.65
2022-11-25T04:25:48.785Z,0.71
2022-11-25T04:26:47.807Z,0.76
2022-11-25T04:27:47.674Z,0.79
2022-11-25T04:28:47.664Z,0.82
2022-11-25T04:29:47.766Z,0.85
2022-11-25T04:30:47.783Z,0.86
2022-11-25T04:31:48.047Z,0.88
2022-11-25T04:32:47.697Z,0.89
2022-11-25T04:33:52.426Z,0.90
2022-11-25T04:34:48.609Z,0.96
2022-11-25T04:35:48.568Z,0.94
2022-11-25T04:36:47.606Z,0.98
2022-11-25T04:37:47.570Z,0.98
2022-11-25T04:38:47.587Z,1.01
2022-11-25T04:39:47.797Z,1.18
2022-11-25T04:40:47.646Z,1.32
2022-11-25T04:41:47.549Z,1.40
2022-11-25T04:42:47.530Z,1.40
2022-11-25T04:43:47.730Z,1.42
2022-11-25T04:45:07.230Z,1.39
2022-11-25T04:46:48.551Z,1.43
2022-11-25T04:47:48.204Z,1.44
2022-11-25T04:48:47.492Z,1.46
2022-11-25T04:49:47.408Z,1.46
2022-11-25T04:50:48.365Z,1.51
2022-11-25T04:51:47.425Z,1.57
2022-11-25T04:52:47.382Z,1.58
2022-11-25T04:53:47.376Z,1.58
2022-11-25T04:54:47.370Z,1.64
2022-11-25T04:55:47.340Z,1.69
2022-11-25T04:56:47.938Z,1.68
2022-11-25T04:57:47.377Z,1.65
2022-11-25T04:58:47.391Z,1.64
2022-11-25T04:59:48.077Z,1.57
2022-11-25T05:00:47.275Z,1.55
2022-11-25T05:01:47.382Z,1.50
2022-11-25T05:02:47.334Z,1.43
2022-11-25T05:03:51.791Z,1.39
2022-11-25T05:04:48.412Z,1.34
2022-11-25T05:05:47.217Z,1.28
2022-11-25T05:06:47.251Z,1.22
2022-11-25T05:07:47.243Z,1.21
2022-11-25T05:08:47.162Z,1.19
2022-11-25T05:09:47.173Z,1.15
2022-11-25T05:10:48.086Z,1.12
2022-11-25T05:11:47.263Z,1.08
2022-11-25T05:12:47.189Z,1.06
2022-11-25T05:13:47.089Z,1.06
2022-11-25T05:14:47.471Z,1.08
2022-11-25T05:15:47.063Z,1.07
2022-11-25T05:16:47.169Z,1.08
2022-11-25T05:17:47.890Z,1.07
2022-11-25T05:18:47.089Z,1.04
2022-11-25T05:19:47.031Z,1.04
2022-11-25T05:20:48.109Z,1.04
2022-11-25T05:21:46.998Z,1.03
2022-11-25T05:22:47.849Z,1.04
2022-11-25T05:23:50.548Z,1.03
2022-11-25T05:24:48.100Z,1.01
2022-11-25T05:25:46.958Z,1.01
2022-11-25T05:26:46.994Z,1.00
2022-11-25T05:27:47.010Z,0.98
2022-11-25T05:28:46.931Z,0.97
2022-11-25T05:29:51.415Z,0.97
2022-11-25T05:30:48.180Z,0.98
2022-11-25T05:31:46.890Z,1.00
2022-11-25T05:32:47.931Z,1.03
2022-11-25T05:33:46.866Z,1.07
2022-11-25T05:34:47.473Z,1.15
2022-11-25T05:35:47.694Z,1.18
2022-11-25T05:36:47.173Z,1.24
2022-11-25T05:37:47.472Z,1.28
2022-11-25T05:38:46.804Z,1.33
2022-11-25T05:39:46.951Z,1.36
2022-11-25T05:40:46.753Z,1.42
2022-11-25T05:41:46.754Z,1.46
2022-11-25T05:42:47.534Z,1.50
2022-11-25T05:43:46.828Z,1.46
2022-11-25T05:44:46.708Z,1.43
2022-11-25T05:45:46.834Z,1.39
2022-11-25T05:46:46.959Z,1.39
2022-11-25T05:47:47.565Z,1.36
2022-11-25T05:48:47.466Z,1.34
2022-11-25T05:49:47.681Z,1.32
2022-11-25T05:50:46.791Z,1.26
2022-11-25T05:51:46.639Z,1.22
2022-11-25T05:52:47.598Z,1.16
2022-11-25T05:53:46.633Z,1.08
2022-11-25T05:54:47.403Z,1.04
2022-11-25T05:55:46.625Z,1.00
2022-11-25T05:56:47.518Z,0.94
2022-11-25T05:57:46.543Z,0.89
2022-11-25T05:58:47.517Z,0.85
2022-11-25T05:59:46.554Z,0.82
2022-11-25T06:00:47.344Z,0.80
2022-11-25T06:01:47.706Z,0.80
2022-11-25T06:02:47.721Z,0.80
2022-11-25T06:03:47.038Z,0.78
2022-11-25T06:04:46.566Z,0.78
2022-11-25T06:05:46.587Z,0.76
2022-11-25T06:06:46.473Z,0.75
2022-11-25T06:07:46.477Z,0.70
2022-11-25T06:08:47.597Z,0.70
2022-11-25T06:09:47.481Z,0.68
2022-11-25T06:10:46.426Z,0.71
2022-11-25T06:11:47.315Z,0.79
2022-11-25T06:12:47.330Z,0.88
2022-11-25T06:13:46.385Z,0.98
2022-11-25T06:14:46.406Z,1.07
2022-11-25T06:15:46.400Z,1.12
2022-11-25T06:16:46.919Z,1.16
2022-11-25T06:17:47.245Z,1.21
2022-11-25T06:18:46.322Z,1.21
2022-11-25T06:19:46.437Z,1.19
2022-11-25T06:20:46.486Z,1.21
2022-11-25T06:21:46.308Z,1.18
2022-11-25T06:22:47.274Z,1.15
2022-11-25T06:23:47.189Z,1.12
2022-11-25T06:24:52.152Z,1.10
2022-11-25T06:25:47.208Z,1.06
2022-11-25T06:26:46.206Z,1.03
2022-11-25T06:28:11.213Z,1.00
2022-11-25T06:28:48.239Z,0.97
2022-11-25T06:29:46.117Z,0.94
2022-11-25T06:30:46.350Z,0.94
2022-11-25T06:31:46.138Z,0.92
2022-11-25T06:32:46.758Z,0.89
2022-11-25T06:33:46.264Z,0.85
2022-11-25T06:34:47.160Z,0.85
2022-11-25T06:35:46.060Z,0.85
2022-11-25T06:36:46.951Z,0.83
2022-11-25T06:37:46.051Z,0.83
2022-11-25T06:38:46.507Z,0.89
2022-11-25T06:39:46.233Z,0.92
2022-11-25T06:40:47.079Z,0.94
2022-11-25T06:41:46.149Z,0.98
2022-11-25T06:42:46.026Z,1.03
2022-11-25T06:43:46.018Z,1.08
2022-11-25T06:44:45.983Z,1.16
2022-11-25T06:45:45.996Z,1.18
2022-11-25T06:46:46.023Z,1.21
2022-11-25T06:47:46.037Z,1.24
2022-11-25T06:48:46.563Z,1.26
2022-11-25T06:49:45.987Z,1.33
2022-11-25T06:50:45.881Z,1.36
2022-11-25T06:51:45.901Z,1.40
2022-11-25T06:52:46.957Z,1.46
2022-11-25T06:53:46.100Z,1.46
2022-11-25T06:54:45.838Z,1.47
2022-11-25T06:55:46.197Z,1.44
2022-11-25T06:56:45.894Z,1.44
2022-11-25T06:57:45.974Z,1.44
2022-11-25T06:58:45.796Z,1.42
2022-11-25T06:59:45.956Z,1.40
2022-11-25T07:00:45.891Z,1.37
2022-11-25T07:01:45.855Z,1.36
2022-11-25T07:02:48.797Z,1.34
2022-11-25T07:03:45.750Z,1.33
2022-11-25T07:04:45.870Z,1.28
2022-11-25T07:05:46.716Z,1.26
2022-11-25T07:06:45.843Z,1.26
2022-11-25T07:07:46.155Z,1.24
2022-11-25T07:08:45.738Z,1.22
2022-11-25T07:09:45.782Z,1.25
2022-11-25T07:10:45.662Z,1.25
2022-11-25T07:11:46.669Z,1.26
2022-11-25T07:12:45.622Z,1.29
2022-11-25T07:13:45.782Z,1.28
2022-11-25T07:14:45.854Z,1.29
2022-11-25T07:15:46.328Z,1.29
2022-11-25T07:16:46.530Z,1.26
2022-11-25T07:17:45.547Z,1.29
2022-11-25T07:18:45.567Z,1.29
2022-11-25T07:19:46.052Z,1.32
2022-11-25T07:20:46.073Z,1.33
2022-11-25T07:21:46.141Z,1.36
2022-11-25T07:22:46.297Z,1.40
2022-11-25T07:23:46.627Z,1.46
2022-11-25T07:24:45.483Z,1.51
2022-11-25T07:25:45.802Z,1.54
2022-11-25T07:26:45.540Z,1.57
2022-11-25T07:27:46.124Z,1.60
2022-11-25T07:28:46.172Z,1.64
2022-11-25T07:30:18.644Z,1.71
2022-11-25T07:31:47.429Z,1.87
2022-11-25T07:32:46.123Z,1.93
2022-11-25T07:33:45.654Z,2.08
2022-11-25T07:34:45.407Z,2.13
2022-11-25T07:35:46.418Z,2.19
2022-11-25T07:36:46.323Z,2.23
2022-11-25T07:37:45.272Z,2.26
2022-11-25T07:38:46.933Z,2.31
2022-11-25T07:39:45.401Z,2.34
2022-11-25T07:40:45.303Z,2.35
2022-11-25T07:41:46.356Z,2.38
2022-11-25T07:42:45.203Z,2.40
2022-11-25T07:43:45.275Z,2.44
2022-11-25T07:44:45.241Z,2.46
2022-11-25T07:45:45.642Z,2.48
2022-11-25T07:46:45.255Z,2.49
2022-11-25T07:47:45.266Z,2.52
2022-11-25T07:48:46.195Z,2.53
2022-11-25T07:49:45.196Z,2.52
2022-11-25T07:50:45.207Z,2.55
2022-11-25T07:51:45.393Z,2.55
2022-11-25T07:52:45.267Z,2.55
2022-11-25T07:53:45.187Z,2.55
2022-11-25T07:54:46.125Z,2.53
2022-11-25T07:55:46.187Z,2.55
2022-11-25T07:56:45.116Z,2.58
2022-11-25T07:57:45.199Z,2.56
2022-11-25T07:58:46.140Z,2.56
2022-11-25T07:59:45.059Z,2.58
2022-11-25T08:00:44.977Z,2.59
2022-11-25T08:01:45.038Z,2.58
2022-11-25T08:02:45.222Z,2.61
2022-11-25T08:03:45.026Z,2.61
2022-11-25T08:04:45.040Z,2.63
2022-11-25T08:05:45.023Z,2.66
2022-11-25T08:06:44.906Z,2.67
2022-11-25T08:07:44.973Z,2.70
2022-11-25T08:08:46.023Z,2.74
2022-11-25T08:09:45.715Z,2.77
2022-11-25T08:10:44.846Z,2.79
2022-11-25T08:11:44.866Z,2.82
2022-11-25T08:12:44.844Z,2.84
2022-11-25T08:13:44.940Z,2.87
2022-11-25T08:14:44.847Z,2.88
2022-11-25T08:15:45.226Z,2.91
2022-11-25T08:16:45.561Z,2.94
2022-11-25T08:17:44.809Z,2.95
2022-11-25T08:18:44.762Z,3.00
2022-11-25T08:19:44.754Z,3.00
2022-11-25T08:20:45.038Z,3.06
2022-11-25T08:21:45.186Z,3.07
2022-11-25T08:22:44.857Z,3.09
2022-11-25T08:23:45.576Z,3.10
2022-11-25T08:24:44.672Z,3.13
2022-11-25T08:25:50.143Z,3.20
2022-11-25T08:26:46.110Z,3.20
2022-11-25T08:27:44.709Z,3.18
2022-11-25T08:28:44.657Z,3.20
2022-11-25T08:29:45.184Z,3.23
2022-11-25T08:30:44.777Z,3.24
2022-11-25T08:31:45.128Z,3.25
2022-11-25T08:32:44.567Z,3.30
2022-11-25T08:33:45.530Z,3.30
2022-11-25T08:34:44.568Z,3.33
2022-11-25T08:35:45.014Z,3.33
2022-11-25T08:36:48.615Z,3.34
2022-11-25T08:37:44.654Z,3.34
2022-11-25T08:38:45.490Z,3.39
2022-11-25T08:39:52.231Z,3.42
2022-11-25T08:40:45.721Z,3.40
2022-11-25T08:41:44.585Z,3.42
2022-11-25T08:42:44.442Z,3.42
2022-11-25T08:43:44.518Z,3.46
2022-11-25T08:44:44.625Z,3.47
2022-11-25T08:45:45.323Z,3.50
2022-11-25T08:46:45.306Z,3.52
2022-11-25T08:47:44.425Z,3.58
2022-11-25T08:48:45.849Z,3.58
2022-11-25T08:49:45.129Z,3.61
2022-11-25T08:50:44.457Z,3.64
2022-11-25T08:51:45.231Z,3.67
2022-11-25T08:52:44.470Z,3.70
2022-11-25T08:53:44.390Z,3.70
2022-11-25T08:54:44.317Z,3.75
2022-11-25T08:55:44.521Z,3.78
2022-11-25T08:56:45.139Z,3.80
2022-11-25T08:57:44.253Z,3.85
2022-11-25T08:58:44.483Z,3.89
2022-11-25T08:59:44.294Z,3.96
2022-11-25T09:00:45.426Z,3.97
2022-11-25T09:01:44.293Z,4.01
2022-11-25T09:02:44.317Z,4.07
2022-11-25T09:03:45.135Z,4.12
2022-11-25T09:04:44.174Z,4.15
2022-11-25T09:05:44.171Z,4.19
2022-11-25T09:06:45.364Z,4.25
2022-11-25T09:07:45.328Z,4.28
2022-11-25T09:08:45.168Z,4.32
2022-11-25T09:09:45.086Z,4.37
2022-11-25T09:10:44.123Z,4.40
2022-11-25T09:11:44.179Z,4.43
2022-11-25T09:12:45.286Z,4.47
2022-11-25T09:13:44.079Z,4.52
2022-11-25T09:14:44.176Z,4.55
2022-11-25T09:15:45.024Z,4.57
2022-11-25T09:16:44.056Z,4.58
2022-11-25T09:17:44.805Z,4.61
2022-11-25T09:18:45.300Z,4.64
2022-11-25T09:19:44.121Z,4.67
2022-11-25T09:20:43.972Z,4.67
2022-11-25T09:21:44.182Z,4.67
2022-11-25T09:22:43.951Z,4.67
2022-11-25T09:23:43.911Z,4.70
2022-11-25T09:24:44.036Z,4.72
2022-11-25T09:25:43.962Z,4.75
2022-11-25T09:26:43.858Z,4.77
2022-11-25T09:27:44.226Z,4.77
2022-11-25T09:28:43.888Z,4.79
2022-11-25T09:29:43.850Z,4.80
2022-11-25T09:30:43.830Z,4.80
2022-11-25T09:31:45.721Z,4.84
2022-11-25T09:32:43.979Z,4.83
2022-11-25T09:33:43.870Z,4.83
2022-11-25T09:34:43.797Z,4.80
2022-11-25T09:35:44.628Z,4.83
2022-11-25T09:36:43.801Z,4.80
2022-11-25T09:37:44.101Z,4.77
2022-11-25T09:38:43.734Z,4.77
2022-11-25T09:39:43.718Z,4.79
2022-11-25T09:40:43.760Z,4.79
2022-11-25T09:41:43.701Z,4.80
2022-11-25T09:42:43.688Z,4.84
2022-11-25T09:43:44.021Z,4.88
2022-11-25T09:44:43.897Z,4.89
2022-11-25T09:45:43.678Z,4.89
2022-11-25T09:46:43.707Z,4.91
2022-11-25T09:47:47.493Z,4.94
2022-11-25T09:48:45.109Z,4.95
2022-11-25T09:49:44.347Z,4.98
2022-11-25T09:50:44.734Z,5.01
2022-11-25T09:51:43.570Z,5.01
2022-11-25T09:52:43.659Z,5.04
2022-11-25T09:53:43.664Z,5.05
2022-11-25T09:54:43.649Z,5.04
2022-11-25T09:55:43.718Z,5.07
2022-11-25T09:56:43.510Z,5.07
2022-11-25T09:57:43.606Z,5.07
2022-11-25T09:58:43.715Z,5.07
2022-11-25T09:59:43.532Z,5.10
2022-11-25T10:00:43.450Z,5.12
2022-11-25T10:01:43.620Z,5.16
2022-11-25T10:02:44.525Z,5.19
2022-11-25T10:03:43.460Z,5.20
2022-11-25T10:04:43.386Z,5.27
2022-11-25T10:05:43.412Z,5.31
2022-11-25T10:06:43.389Z,5.34
2022-11-25T10:07:43.367Z,5.38
2022-11-25T10:08:43.320Z,5.43
2022-11-25T10:09:44.434Z,5.48
2022-11-25T10:10:43.311Z,5.52
2022-11-25T10:11:43.314Z,5.57
2022-11-25T10:12:43.259Z,5.64
2022-11-25T10:13:44.054Z,5.68
2022-11-25T10:14:44.425Z,5.70
2022-11-25T10:15:43.365Z,5.74
2022-11-25T10:16:48.506Z,5.74
2022-11-25T10:17:44.510Z,5.74
2022-11-25T10:18:44.034Z,5.74
2022-11-25T10:19:43.229Z,5.75
2022-11-25T10:20:43.181Z,5.77
2022-11-25T10:21:44.631Z,5.78
2022-11-25T10:22:44.214Z,5.77
2022-11-25T10:23:43.301Z,5.81
2022-11-25T10:24:43.479Z,5.82
2022-11-25T10:25:43.182Z,5.85
2022-11-25T10:26:44.334Z,5.88
2022-11-25T10:27:43.162Z,5.92
2022-11-25T10:28:43.213Z,5.96
2022-11-25T10:29:43.059Z,6.00
2022-11-25T10:30:43.142Z,6.07
2022-11-25T10:31:43.089Z,6.13
2022-11-25T10:32:43.035Z,6.18
2022-11-25T10:33:43.032Z,6.26
2022-11-25T10:34:43.075Z,6.33
2022-11-25T10:35:43.980Z,6.41
2022-11-25T10:36:43.197Z,6.48
2022-11-25T10:37:43.915Z,6.61
2022-11-25T10:38:42.986Z,6.68
2022-11-25T10:39:42.970Z,6.77
2022-11-25T10:40:43.190Z,6.84
2022-11-25T10:41:43.019Z,6.94
2022-11-25T10:42:42.896Z,6.97
2022-11-25T10:43:42.916Z,6.99
2022-11-25T10:44:42.920Z,7.07
2022-11-25T10:45:42.834Z,7.08
2022-11-25T10:47:12.167Z,7.08
2022-11-25T10:47:45.336Z,7.05
2022-11-25T10:48:44.597Z,7.09
2022-11-25T10:49:42.875Z,7.07
2022-11-25T10:50:42.871Z,7.05
2022-11-25T10:51:43.988Z,7.04
2022-11-25T10:52:42.796Z,7.04
2022-11-25T10:53:43.088Z,7.05
2022-11-25T10:54:44.097Z,7.04
2022-11-25T10:55:42.739Z,7.01
2022-11-25T10:56:42.715Z,6.99
2022-11-25T10:57:43.889Z,7.02
2022-11-25T10:58:42.669Z,7.05
2022-11-25T10:59:42.697Z,7.08
2022-11-25T11:00:42.669Z,7.08
2022-11-25T11:01:43.054Z,7.07
2022-11-25T11:02:43.450Z,7.07
2022-11-25T11:03:43.855Z,7.05
2022-11-25T11:04:42.691Z,7.05
2022-11-25T11:05:46.543Z,7.07
2022-11-25T11:06:42.581Z,7.04
2022-11-25T11:07:42.769Z,7.07
2022-11-25T11:08:42.568Z,7.05
2022-11-25T11:09:42.568Z,7.07
2022-11-25T11:10:42.798Z,7.07
2022-11-25T11:11:43.209Z,7.05
2022-11-25T11:12:42.763Z,7.05
2022-11-25T11:13:42.526Z,7.04
2022-11-25T11:14:42.502Z,7.04
2022-11-25T11:15:43.799Z,7.07
2022-11-25T11:16:42.607Z,7.07
2022-11-25T11:17:42.462Z,7.09
2022-11-25T11:18:42.463Z,7.07
2022-11-25T11:19:42.643Z,7.05
2022-11-25T11:20:42.521Z,7.05
2022-11-25T11:21:42.376Z,7.05
2022-11-25T11:22:42.414Z,7.07
2022-11-25T11:23:42.629Z,7.08
2022-11-25T11:24:42.372Z,7.13
2022-11-25T11:25:42.390Z,7.13
2022-11-25T11:26:42.562Z,7.15
2022-11-25T11:27:43.090Z,7.16
2022-11-25T11:28:43.508Z,7.17
2022-11-25T11:29:42.296Z,7.19
2022-11-25T11:30:42.282Z,7.20
2022-11-25T11:31:43.269Z,7.22
2022-11-25T11:32:42.222Z,7.23
2022-11-25T11:33:43.219Z,7.23
2022-11-25T11:34:42.229Z,7.27
2022-11-25T11:35:42.294Z,7.29
2022-11-25T11:36:42.196Z,7.31
2022-11-25T11:37:42.686Z,7.34
2022-11-25T11:38:42.477Z,7.37
2022-11-25T11:39:42.235Z,7.40
2022-11-25T11:40:42.379Z,7.40
2022-11-25T11:41:42.155Z,7.42
2022-11-25T11:42:43.185Z,7.44
2022-11-25T11:43:42.157Z,7.44
2022-11-25T11:44:42.326Z,7.47
2022-11-25T11:45:42.379Z,7.49
2022-11-25T11:46:42.216Z,7.52
2022-11-25T11:47:42.109Z,7.53
2022-11-25T11:48:42.018Z,7.55
2022-11-25T11:49:43.028Z,7.56
2022-11-25T11:50:42.031Z,7.56
2022-11-25T11:51:42.049Z,7.56
2022-11-25T11:52:42.085Z,7.58
2022-11-25T11:53:41.986Z,7.58
2022-11-25T11:54:43.458Z,7.56
2022-11-25T11:55:42.028Z,7.56
2022-11-25T11:56:41.939Z,7.55
2022-11-25T11:57:42.766Z,7.53
2022-11-25T11:58:42.380Z,7.53
2022-11-25T11:59:41.891Z,7.52
2022-11-25T12:00:41.902Z,7.53
2022-11-25T12:01:41.968Z,7.53
2022-11-25T12:02:42.074Z,7.53
2022-11-25T12:03:41.937Z,7.53
2022-11-25T12:04:42.626Z,7.55
2022-11-25T12:05:42.211Z,7.56
2022-11-25T12:06:41.892Z,7.56
2022-11-25T12:07:42.104Z,7.58
2022-11-25T12:08:42.741Z,7.59
2022-11-25T12:09:42.830Z,7.59
2022-11-25T12:10:41.737Z,7.59
2022-11-25T12:11:42.093Z,7.60
2022-11-25T12:12:41.901Z,7.62
2022-11-25T12:13:41.868Z,7.62
2022-11-25T12:14:41.703Z,7.63
2022-11-25T12:15:41.702Z,7.63
2022-11-25T12:16:41.758Z,7.66
2022-11-25T12:17:41.700Z,7.63
2022-11-25T12:18:41.890Z,7.63
2022-11-25T12:19:41.911Z,7.62
2022-11-25T12:20:41.739Z,7.60
2022-11-25T12:21:42.476Z,7.59
2022-11-25T12:22:41.646Z,7.59
2022-11-25T12:23:41.684Z,7.59
2022-11-25T12:24:41.855Z,7.55
2022-11-25T12:25:41.586Z,7.56
2022-11-25T12:26:41.557Z,7.58
2022-11-25T12:27:42.460Z,7.56
2022-11-25T12:28:42.354Z,7.56
2022-11-25T12:29:42.026Z,7.55
2022-11-25T12:30:41.545Z,7.55
2022-11-25T12:31:42.013Z,7.55
2022-11-25T12:32:41.571Z,7.55
2022-11-25T12:33:42.013Z,7.53
2022-11-25T12:34:41.563Z,7.55
2022-11-25T12:35:41.448Z,7.55
2022-11-25T12:36:41.464Z,7.52
2022-11-25T12:37:41.496Z,7.53
2022-11-25T12:38:41.417Z,7.55
2022-11-25T12:39:42.337Z,7.56
2022-11-25T12:40:41.344Z,7.59
2022-11-25T12:41:41.426Z,7.63
2022-11-25T12:42:41.358Z,7.63
2022-11-25T12:43:41.322Z,7.66
2022-11-25T12:44:41.395Z,7.69
2022-11-25T12:45:41.410Z,7.71
2022-11-25T12:46:41.285Z,7.72
2022-11-25T12:47:41.399Z,7.75
2022-11-25T12:48:41.290Z,7.75
2022-11-25T12:49:41.818Z,7.72
2022-11-25T12:50:41.250Z,7.77
2022-11-25T12:51:41.188Z,7.77
2022-11-25T12:52:41.219Z,7.79
2022-11-25T12:53:41.278Z,7.81
2022-11-25T12:54:42.418Z,7.81
2022-11-25T12:55:41.185Z,7.82
2022-11-25T12:56:41.244Z,7.84
2022-11-25T12:57:47.422Z,7.85
2022-11-25T12:58:43.122Z,7.82
2022-11-25T12:59:41.721Z,7.81
2022-11-25T13:00:42.660Z,7.79
2022-11-25T13:01:41.370Z,7.78
2022-11-25T13:02:41.226Z,7.77
2022-11-25T13:03:41.698Z,7.78
2022-11-25T13:04:41.116Z,7.77
2022-11-25T13:05:41.611Z,7.75
2022-11-25T13:06:41.019Z,7.75
2022-11-25T13:07:41.152Z,7.74
2022-11-25T13:08:40.999Z,7.72
2022-11-25T13:09:41.009Z,7.71
2022-11-25T13:10:41.081Z,7.71
2022-11-25T13:11:41.333Z,7.67
2022-11-25T13:12:42.028Z,7.63
2022-11-25T13:13:41.257Z,7.63
2022-11-25T13:14:42.547Z,7.62
2022-11-25T13:15:41.433Z,7.60
2022-11-25T13:16:41.458Z,7.59
2022-11-25T13:17:41.055Z,7.59
2022-11-25T13:18:40.882Z,7.55
2022-11-25T13:19:41.171Z,7.56
2022-11-25T13:20:41.961Z,7.53
2022-11-25T13:21:40.873Z,7.52